sensor_id;sensor_type;location;lat;lon;timestamp;P1;durP1;ratioP1;P2;durP2;ratioP2
9102;SDS011;4587;51.434;6.788;2023-04-15T00:00:29;9.47;;;6.37;;
9102;SDS011;4587;51.434;6.788;2023-04-15T00:02:55;12.37;;;6.57;;
9102;SDS011;4587;51.434;6.788;2023-04-15T00:05:20;12.27;;;6.73;;
9102;SDS011;4587;51.434;6.788;2023-04-15T00:07:46;11.30;;;6.37;;
9102;SDS011;4587;51.434;6.788;2023-04-15T00:10:12;13.67;;;6.90;;
9102;SDS011;4587;51.434;6.788;2023-04-15T00:12:41;10.37;;;6.60;;
9102;SDS011;4587;51.434;6.788;2023-04-15T00:15:07;8.90;;;6.70;;
9102;SDS011;4587;51.434;6.788;2023-04-15T00:17:33;10.10;;;6.67;;
9102;SDS011;4587;51.434;6.788;2023-04-15T00:20:00;11.63;;;6.87;;
9102;SDS011;4587;51.434;6.788;2023-04-15T00:22:26;7.57;;;6.00;;
9102;SDS011;4587;51.434;6.788;2023-04-15T00:24:52;11.87;;;6.60;;
9102;SDS011;4587;51.434;6.788;2023-04-15T00:27:18;10.10;;;6.43;;
9102;SDS011;4587;51.434;6.788;2023-04-15T00:29:44;9.87;;;6.33;;
9102;SDS011;4587;51.434;6.788;2023-04-15T00:32:10;10.33;;;6.30;;
9102;SDS011;4587;51.434;6.788;2023-04-15T00:34:35;10.43;;;6.60;;
9102;SDS011;4587;51.434;6.788;2023-04-15T00:37:01;10.47;;;6.47;;
9102;SDS011;4587;51.434;6.788;2023-04-15T00:39:27;10.27;;;6.80;;
9102;SDS011;4587;51.434;6.788;2023-04-15T00:41:53;15.10;;;6.47;;
9102;SDS011;4587;51.434;6.788;2023-04-15T00:44:19;10.83;;;6.43;;
9102;SDS011;4587;51.434;6.788;2023-04-15T00:46:45;12.37;;;6.47;;
9102;SDS011;4587;51.434;6.788;2023-04-15T00:49:12;9.03;;;6.20;;
9102;SDS011;4587;51.434;6.788;2023-04-15T00:51:38;8.87;;;6.53;;
9102;SDS011;4587;51.434;6.788;2023-04-15T00:54:04;9.07;;;6.50;;
9102;SDS011;4587;51.434;6.788;2023-04-15T00:56:35;8.97;;;6.60;;
9102;SDS011;4587;51.434;6.788;2023-04-15T00:59:02;9.80;;;6.43;;
9102;SDS011;4587;51.434;6.788;2023-04-15T01:01:30;10.80;;;6.70;;
9102;SDS011;4587;51.434;6.788;2023-04-15T01:03:58;10.27;;;6.40;;
9102;SDS011;4587;51.434;6.788;2023-04-15T01:06:26;11.90;;;6.50;;
9102;SDS011;4587;51.434;6.788;2023-04-15T01:08:53;11.13;;;7.00;;
9102;SDS011;4587;51.434;6.788;2023-04-15T01:11:20;9.10;;;6.70;;
9102;SDS011;4587;51.434;6.788;2023-04-15T01:13:48;8.67;;;7.03;;
9102;SDS011;4587;51.434;6.788;2023-04-15T01:16:14;11.60;;;7.50;;
9102;SDS011;4587;51.434;6.788;2023-04-15T01:18:41;11.90;;;7.63;;
9102;SDS011;4587;51.434;6.788;2023-04-15T01:21:07;11.90;;;7.67;;
9102;SDS011;4587;51.434;6.788;2023-04-15T01:23:34;9.40;;;8.23;;
9102;SDS011;4587;51.434;6.788;2023-04-15T01:26:02;11.53;;;7.80;;
9102;SDS011;4587;51.434;6.788;2023-04-15T01:28:29;9.30;;;7.73;;
9102;SDS011;4587;51.434;6.788;2023-04-15T01:31:08;9.80;;;7.80;;
9102;SDS011;4587;51.434;6.788;2023-04-15T01:33:36;12.77;;;8.07;;
9102;SDS011;4587;51.434;6.788;2023-04-15T01:36:03;11.33;;;8.00;;
9102;SDS011;4587;51.434;6.788;2023-04-15T01:38:29;11.30;;;8.37;;
9102;SDS011;4587;51.434;6.788;2023-04-15T01:40:57;8.80;;;7.87;;
9102;SDS011;4587;51.434;6.788;2023-04-15T01:43:23;11.70;;;7.90;;
9102;SDS011;4587;51.434;6.788;2023-04-15T01:45:50;9.47;;;7.67;;
9102;SDS011;4587;51.434;6.788;2023-04-15T01:48:16;9.67;;;7.80;;
9102;SDS011;4587;51.434;6.788;2023-04-15T01:50:44;12.83;;;8.20;;
9102;SDS011;4587;51.434;6.788;2023-04-15T01:53:10;11.77;;;8.10;;
9102;SDS011;4587;51.434;6.788;2023-04-15T01:55:36;13.53;;;8.20;;
9102;SDS011;4587;51.434;6.788;2023-04-15T01:58:02;10.77;;;8.20;;
9102;SDS011;4587;51.434;6.788;2023-04-15T02:00:28;11.47;;;8.33;;
9102;SDS011;4587;51.434;6.788;2023-04-15T02:02:54;11.10;;;8.97;;
9102;SDS011;4587;51.434;6.788;2023-04-15T02:05:20;11.20;;;8.40;;
9102;SDS011;4587;51.434;6.788;2023-04-15T02:07:46;10.30;;;8.63;;
9102;SDS011;4587;51.434;6.788;2023-04-15T02:10:15;9.57;;;8.60;;
9102;SDS011;4587;51.434;6.788;2023-04-15T02:12:41;11.07;;;8.77;;
9102;SDS011;4587;51.434;6.788;2023-04-15T02:15:07;10.60;;;8.33;;
9102;SDS011;4587;51.434;6.788;2023-04-15T02:17:34;11.77;;;9.07;;
9102;SDS011;4587;51.434;6.788;2023-04-15T02:20:00;10.53;;;8.70;;
9102;SDS011;4587;51.434;6.788;2023-04-15T02:22:26;11.90;;;9.40;;
9102;SDS011;4587;51.434;6.788;2023-04-15T02:24:53;10.47;;;9.40;;
9102;SDS011;4587;51.434;6.788;2023-04-15T02:27:18;15.07;;;9.10;;
9102;SDS011;4587;51.434;6.788;2023-04-15T02:29:44;9.77;;;8.80;;
9102;SDS011;4587;51.434;6.788;2023-04-15T02:32:10;11.37;;;9.40;;
9102;SDS011;4587;51.434;6.788;2023-04-15T02:34:38;11.63;;;9.30;;
9102;SDS011;4587;51.434;6.788;2023-04-15T02:37:08;12.87;;;9.90;;
9102;SDS011;4587;51.434;6.788;2023-04-15T02:39:37;12.13;;;9.20;;
9102;SDS011;4587;51.434;6.788;2023-04-15T02:42:03;10.83;;;9.57;;
9102;SDS011;4587;51.434;6.788;2023-04-15T02:44:30;11.27;;;9.67;;
9102;SDS011;4587;51.434;6.788;2023-04-15T02:46:56;10.63;;;9.53;;
9102;SDS011;4587;51.434;6.788;2023-04-15T02:49:23;12.60;;;9.57;;
9102;SDS011;4587;51.434;6.788;2023-04-15T02:51:49;11.20;;;9.20;;
9102;SDS011;4587;51.434;6.788;2023-04-15T02:54:16;10.17;;;9.03;;
9102;SDS011;4587;51.434;6.788;2023-04-15T02:56:42;10.73;;;9.63;;
9102;SDS011;4587;51.434;6.788;2023-04-15T02:59:07;13.20;;;9.87;;
9102;SDS011;4587;51.434;6.788;2023-04-15T03:01:33;12.27;;;10.00;;
9102;SDS011;4587;51.434;6.788;2023-04-15T03:03:59;13.30;;;9.80;;
9102;SDS011;4587;51.434;6.788;2023-04-15T03:06:25;10.57;;;9.43;;
9102;SDS011;4587;51.434;6.788;2023-04-15T03:08:51;10.93;;;9.83;;
9102;SDS011;4587;51.434;6.788;2023-04-15T03:11:19;12.07;;;10.20;;
9102;SDS011;4587;51.434;6.788;2023-04-15T03:13:45;16.80;;;10.63;;
9102;SDS011;4587;51.434;6.788;2023-04-15T03:16:11;16.53;;;10.07;;
9102;SDS011;4587;51.434;6.788;2023-04-15T03:18:37;12.00;;;10.17;;
9102;SDS011;4587;51.434;6.788;2023-04-15T03:21:02;11.20;;;9.63;;
9102;SDS011;4587;51.434;6.788;2023-04-15T03:23:29;11.83;;;10.23;;
9102;SDS011;4587;51.434;6.788;2023-04-15T03:25:55;11.23;;;10.00;;
9102;SDS011;4587;51.434;6.788;2023-04-15T03:28:22;11.43;;;9.83;;
9102;SDS011;4587;51.434;6.788;2023-04-15T03:30:48;12.23;;;10.20;;
9102;SDS011;4587;51.434;6.788;2023-04-15T03:33:16;13.03;;;10.63;;
9102;SDS011;4587;51.434;6.788;2023-04-15T03:35:42;13.43;;;10.10;;
9102;SDS011;4587;51.434;6.788;2023-04-15T03:38:08;13.60;;;9.63;;
9102;SDS011;4587;51.434;6.788;2023-04-15T03:40:33;14.23;;;9.30;;
9102;SDS011;4587;51.434;6.788;2023-04-15T03:42:59;12.37;;;10.07;;
9102;SDS011;4587;51.434;6.788;2023-04-15T03:45:25;10.60;;;9.47;;
9102;SDS011;4587;51.434;6.788;2023-04-15T03:47:51;12.97;;;10.30;;
9102;SDS011;4587;51.434;6.788;2023-04-15T03:50:16;10.93;;;9.83;;
9102;SDS011;4587;51.434;6.788;2023-04-15T03:52:43;11.47;;;10.27;;
9102;SDS011;4587;51.434;6.788;2023-04-15T03:55:09;11.20;;;9.83;;
9102;SDS011;4587;51.434;6.788;2023-04-15T03:57:35;10.83;;;9.57;;
9102;SDS011;4587;51.434;6.788;2023-04-15T04:00:04;11.43;;;10.00;;
9102;SDS011;4587;51.434;6.788;2023-04-15T04:02:31;12.27;;;9.43;;
9102;SDS011;4587;51.434;6.788;2023-04-15T04:04:56;10.60;;;9.20;;
9102;SDS011;4587;51.434;6.788;2023-04-15T04:07:22;10.93;;;9.47;;
9102;SDS011;4587;51.434;6.788;2023-04-15T04:09:49;10.47;;;9.10;;
9102;SDS011;4587;51.434;6.788;2023-04-15T04:12:14;11.80;;;9.80;;
9102;SDS011;4587;51.434;6.788;2023-04-15T04:14:40;11.37;;;8.87;;
9102;SDS011;4587;51.434;6.788;2023-04-15T04:17:06;11.63;;;10.13;;
9102;SDS011;4587;51.434;6.788;2023-04-15T04:19:32;10.63;;;9.47;;
9102;SDS011;4587;51.434;6.788;2023-04-15T04:21:58;11.70;;;10.00;;
9102;SDS011;4587;51.434;6.788;2023-04-15T04:24:23;10.97;;;9.83;;
9102;SDS011;4587;51.434;6.788;2023-04-15T04:26:49;10.77;;;9.67;;
9102;SDS011;4587;51.434;6.788;2023-04-15T04:29:15;12.00;;;9.80;;
9102;SDS011;4587;51.434;6.788;2023-04-15T04:31:40;10.80;;;9.43;;
9102;SDS011;4587;51.434;6.788;2023-04-15T04:34:06;15.57;;;9.90;;
9102;SDS011;4587;51.434;6.788;2023-04-15T04:36:32;11.97;;;10.13;;
9102;SDS011;4587;51.434;6.788;2023-04-15T04:38:57;10.80;;;9.37;;
9102;SDS011;4587;51.434;6.788;2023-04-15T04:41:23;12.63;;;10.50;;
9102;SDS011;4587;51.434;6.788;2023-04-15T04:43:49;12.97;;;10.20;;
9102;SDS011;4587;51.434;6.788;2023-04-15T04:46:15;11.40;;;10.20;;
9102;SDS011;4587;51.434;6.788;2023-04-15T04:48:41;11.40;;;10.20;;
9102;SDS011;4587;51.434;6.788;2023-04-15T04:51:06;11.80;;;9.90;;
9102;SDS011;4587;51.434;6.788;2023-04-15T04:53:33;11.13;;;9.93;;
9102;SDS011;4587;51.434;6.788;2023-04-15T04:55:59;12.50;;;10.37;;
9102;SDS011;4587;51.434;6.788;2023-04-15T04:58:24;11.43;;;9.93;;
9102;SDS011;4587;51.434;6.788;2023-04-15T05:00:54;13.70;;;10.70;;
9102;SDS011;4587;51.434;6.788;2023-04-15T05:03:20;14.40;;;10.57;;
9102;SDS011;4587;51.434;6.788;2023-04-15T05:05:46;12.97;;;10.87;;
9102;SDS011;4587;51.434;6.788;2023-04-15T05:08:13;13.03;;;10.00;;
9102;SDS011;4587;51.434;6.788;2023-04-15T05:10:40;11.50;;;10.03;;
9102;SDS011;4587;51.434;6.788;2023-04-15T05:13:05;11.50;;;10.27;;
9102;SDS011;4587;51.434;6.788;2023-04-15T05:15:31;12.47;;;10.93;;
9102;SDS011;4587;51.434;6.788;2023-04-15T05:17:58;18.30;;;11.17;;
9102;SDS011;4587;51.434;6.788;2023-04-15T05:20:24;14.40;;;10.40;;
9102;SDS011;4587;51.434;6.788;2023-04-15T05:22:50;12.97;;;10.33;;
9102;SDS011;4587;51.434;6.788;2023-04-15T05:25:16;11.23;;;10.13;;
9102;SDS011;4587;51.434;6.788;2023-04-15T05:27:42;12.67;;;11.33;;
9102;SDS011;4587;51.434;6.788;2023-04-15T05:30:08;15.93;;;10.60;;
9102;SDS011;4587;51.434;6.788;2023-04-15T05:32:37;13.17;;;10.27;;
9102;SDS011;4587;51.434;6.788;2023-04-15T05:35:02;13.10;;;10.70;;
9102;SDS011;4587;51.434;6.788;2023-04-15T05:37:28;13.03;;;10.37;;
9102;SDS011;4587;51.434;6.788;2023-04-15T05:39:54;12.27;;;11.00;;
9102;SDS011;4587;51.434;6.788;2023-04-15T05:42:20;11.53;;;10.33;;
9102;SDS011;4587;51.434;6.788;2023-04-15T05:44:46;12.73;;;10.27;;
9102;SDS011;4587;51.434;6.788;2023-04-15T05:47:12;11.67;;;10.30;;
9102;SDS011;4587;51.434;6.788;2023-04-15T05:49:37;13.27;;;10.80;;
9102;SDS011;4587;51.434;6.788;2023-04-15T05:52:03;12.33;;;10.73;;
9102;SDS011;4587;51.434;6.788;2023-04-15T05:54:29;13.90;;;11.20;;
9102;SDS011;4587;51.434;6.788;2023-04-15T05:56:54;13.80;;;10.63;;
9102;SDS011;4587;51.434;6.788;2023-04-15T05:59:21;13.03;;;10.93;;
9102;SDS011;4587;51.434;6.788;2023-04-15T06:01:47;12.40;;;11.10;;
9102;SDS011;4587;51.434;6.788;2023-04-15T06:04:13;12.03;;;10.83;;
9102;SDS011;4587;51.434;6.788;2023-04-15T06:06:39;13.00;;;11.67;;
9102;SDS011;4587;51.434;6.788;2023-04-15T06:09:05;11.83;;;10.70;;
9102;SDS011;4587;51.434;6.788;2023-04-15T06:11:30;12.63;;;11.30;;
9102;SDS011;4587;51.434;6.788;2023-04-15T06:13:56;12.27;;;11.10;;
9102;SDS011;4587;51.434;6.788;2023-04-15T06:16:22;13.47;;;11.30;;
9102;SDS011;4587;51.434;6.788;2023-04-15T06:18:47;13.03;;;11.73;;
9102;SDS011;4587;51.434;6.788;2023-04-15T06:21:13;13.37;;;11.93;;
9102;SDS011;4587;51.434;6.788;2023-04-15T06:23:39;12.83;;;11.43;;
9102;SDS011;4587;51.434;6.788;2023-04-15T06:26:06;12.97;;;11.33;;
9102;SDS011;4587;51.434;6.788;2023-04-15T06:28:32;13.47;;;12.07;;
9102;SDS011;4587;51.434;6.788;2023-04-15T06:30:58;13.47;;;11.60;;
9102;SDS011;4587;51.434;6.788;2023-04-15T06:33:23;13.13;;;11.93;;
9102;SDS011;4587;51.434;6.788;2023-04-15T06:35:49;15.00;;;12.03;;
9102;SDS011;4587;51.434;6.788;2023-04-15T06:38:15;13.17;;;11.83;;
9102;SDS011;4587;51.434;6.788;2023-04-15T06:40:41;13.20;;;11.93;;
9102;SDS011;4587;51.434;6.788;2023-04-15T06:43:07;13.30;;;11.67;;
9102;SDS011;4587;51.434;6.788;2023-04-15T06:45:33;12.90;;;11.57;;
9102;SDS011;4587;51.434;6.788;2023-04-15T06:47:59;12.97;;;11.67;;
9102;SDS011;4587;51.434;6.788;2023-04-15T06:50:25;13.40;;;12.00;;
9102;SDS011;4587;51.434;6.788;2023-04-15T06:52:52;12.23;;;11.03;;
9102;SDS011;4587;51.434;6.788;2023-04-15T06:55:18;12.93;;;11.63;;
9102;SDS011;4587;51.434;6.788;2023-04-15T06:57:44;12.70;;;11.40;;
9102;SDS011;4587;51.434;6.788;2023-04-15T07:00:10;12.40;;;11.10;;
9102;SDS011;4587;51.434;6.788;2023-04-15T07:02:36;12.57;;;11.40;;
9102;SDS011;4587;51.434;6.788;2023-04-15T07:05:02;15.03;;;11.60;;
9102;SDS011;4587;51.434;6.788;2023-04-15T07:07:28;12.03;;;10.87;;
9102;SDS011;4587;51.434;6.788;2023-04-15T07:09:54;13.10;;;10.03;;
9102;SDS011;4587;51.434;6.788;2023-04-15T07:12:20;11.60;;;10.40;;
9102;SDS011;4587;51.434;6.788;2023-04-15T07:14:46;12.33;;;10.20;;
9102;SDS011;4587;51.434;6.788;2023-04-15T07:17:11;10.27;;;9.23;;
9102;SDS011;4587;51.434;6.788;2023-04-15T07:19:37;11.40;;;9.50;;
9102;SDS011;4587;51.434;6.788;2023-04-15T07:22:03;8.47;;;7.77;;
9102;SDS011;4587;51.434;6.788;2023-04-15T07:24:28;8.30;;;7.50;;
9102;SDS011;4587;51.434;6.788;2023-04-15T07:26:55;8.33;;;7.53;;
9102;SDS011;4587;51.434;6.788;2023-04-15T07:29:22;7.53;;;6.80;;
9102;SDS011;4587;51.434;6.788;2023-04-15T07:31:48;11.63;;;8.23;;
9102;SDS011;4587;51.434;6.788;2023-04-15T07:34:13;7.70;;;7.00;;
9102;SDS011;4587;51.434;6.788;2023-04-15T07:36:40;8.17;;;7.37;;
9102;SDS011;4587;51.434;6.788;2023-04-15T07:39:06;8.00;;;7.30;;
9102;SDS011;4587;51.434;6.788;2023-04-15T07:41:33;8.90;;;8.10;;
9102;SDS011;4587;51.434;6.788;2023-04-15T07:43:59;9.63;;;7.30;;
9102;SDS011;4587;51.434;6.788;2023-04-15T07:46:25;9.07;;;7.53;;
9102;SDS011;4587;51.434;6.788;2023-04-15T07:48:51;8.33;;;7.53;;
9102;SDS011;4587;51.434;6.788;2023-04-15T07:51:18;8.33;;;7.53;;
9102;SDS011;4587;51.434;6.788;2023-04-15T07:53:45;8.20;;;7.40;;
9102;SDS011;4587;51.434;6.788;2023-04-15T07:56:12;8.20;;;7.40;;
9102;SDS011;4587;51.434;6.788;2023-04-15T07:58:38;8.57;;;7.77;;
9102;SDS011;4587;51.434;6.788;2023-04-15T08:01:04;7.10;;;6.40;;
9102;SDS011;4587;51.434;6.788;2023-04-15T08:03:30;6.40;;;5.80;;
9102;SDS011;4587;51.434;6.788;2023-04-15T08:05:56;6.97;;;6.27;;
9102;SDS011;4587;51.434;6.788;2023-04-15T08:08:21;4.80;;;4.33;;
9102;SDS011;4587;51.434;6.788;2023-04-15T08:10:47;5.10;;;4.60;;
9102;SDS011;4587;51.434;6.788;2023-04-15T08:13:13;6.03;;;4.30;;
9102;SDS011;4587;51.434;6.788;2023-04-15T08:15:39;4.73;;;4.00;;
9102;SDS011;4587;51.434;6.788;2023-04-15T08:18:05;4.27;;;3.80;;
9102;SDS011;4587;51.434;6.788;2023-04-15T08:20:31;4.33;;;3.90;;
9102;SDS011;4587;51.434;6.788;2023-04-15T08:22:57;5.50;;;4.33;;
9102;SDS011;4587;51.434;6.788;2023-04-15T08:25:23;4.40;;;4.00;;
9102;SDS011;4587;51.434;6.788;2023-04-15T08:27:48;4.63;;;4.13;;
9102;SDS011;4587;51.434;6.788;2023-04-15T08:30:14;4.70;;;4.20;;
9102;SDS011;4587;51.434;6.788;2023-04-15T08:32:41;6.93;;;4.00;;
9102;SDS011;4587;51.434;6.788;2023-04-15T08:35:10;3.70;;;3.23;;
9102;SDS011;4587;51.434;6.788;2023-04-15T08:37:35;3.50;;;3.20;;
9102;SDS011;4587;51.434;6.788;2023-04-15T08:40:01;3.77;;;3.47;;
9102;SDS011;4587;51.434;6.788;2023-04-15T08:42:31;4.00;;;3.60;;
9102;SDS011;4587;51.434;6.788;2023-04-15T08:45:05;5.87;;;3.83;;
9102;SDS011;4587;51.434;6.788;2023-04-15T08:47:35;5.53;;;3.80;;
9102;SDS011;4587;51.434;6.788;2023-04-15T08:50:07;3.70;;;3.30;;
9102;SDS011;4587;51.434;6.788;2023-04-15T08:52:34;3.63;;;3.27;;
9102;SDS011;4587;51.434;6.788;2023-04-15T08:55:01;4.17;;;3.20;;
9102;SDS011;4587;51.434;6.788;2023-04-15T08:57:27;3.77;;;3.47;;
9102;SDS011;4587;51.434;6.788;2023-04-15T08:59:56;3.50;;;2.80;;
9102;SDS011;4587;51.434;6.788;2023-04-15T09:02:23;3.73;;;3.40;;
9102;SDS011;4587;51.434;6.788;2023-04-15T09:04:50;3.53;;;3.23;;
9102;SDS011;4587;51.434;6.788;2023-04-15T09:07:16;3.27;;;2.97;;
9102;SDS011;4587;51.434;6.788;2023-04-15T09:09:41;4.03;;;3.47;;
9102;SDS011;4587;51.434;6.788;2023-04-15T09:12:07;4.10;;;3.70;;
9102;SDS011;4587;51.434;6.788;2023-04-15T09:14:34;3.47;;;3.03;;
9102;SDS011;4587;51.434;6.788;2023-04-15T09:17:01;3.80;;;3.50;;
9102;SDS011;4587;51.434;6.788;2023-04-15T09:19:31;4.33;;;3.93;;
9102;SDS011;4587;51.434;6.788;2023-04-15T09:21:59;3.90;;;3.50;;
9102;SDS011;4587;51.434;6.788;2023-04-15T09:24:32;5.90;;;3.67;;
9102;SDS011;4587;51.434;6.788;2023-04-15T09:27:02;3.80;;;3.50;;
9102;SDS011;4587;51.434;6.788;2023-04-15T09:29:27;4.43;;;3.53;;
9102;SDS011;4587;51.434;6.788;2023-04-15T09:31:53;4.83;;;3.60;;
9102;SDS011;4587;51.434;6.788;2023-04-15T09:34:19;5.90;;;3.37;;
9102;SDS011;4587;51.434;6.788;2023-04-15T09:36:55;3.53;;;3.23;;
9102;SDS011;4587;51.434;6.788;2023-04-15T09:39:21;4.07;;;3.67;;
9102;SDS011;4587;51.434;6.788;2023-04-15T09:42:05;3.63;;;3.33;;
9102;SDS011;4587;51.434;6.788;2023-04-15T09:44:31;5.43;;;3.77;;
9102;SDS011;4587;51.434;6.788;2023-04-15T09:46:57;5.13;;;4.10;;
9102;SDS011;4587;51.434;6.788;2023-04-15T09:49:22;4.23;;;3.83;;
9102;SDS011;4587;51.434;6.788;2023-04-15T09:51:48;3.63;;;3.33;;
9102;SDS011;4587;51.434;6.788;2023-04-15T09:54:20;3.87;;;3.43;;
9102;SDS011;4587;51.434;6.788;2023-04-15T09:56:46;3.63;;;3.33;;
9102;SDS011;4587;51.434;6.788;2023-04-15T09:59:12;3.93;;;3.27;;
9102;SDS011;4587;51.434;6.788;2023-04-15T10:01:38;3.87;;;3.57;;
9102;SDS011;4587;51.434;6.788;2023-04-15T10:04:06;3.80;;;3.50;;
9102;SDS011;4587;51.434;6.788;2023-04-15T10:06:33;4.23;;;3.83;;
9102;SDS011;4587;51.434;6.788;2023-04-15T10:09:00;4.37;;;3.87;;
9102;SDS011;4587;51.434;6.788;2023-04-15T10:11:29;4.20;;;3.80;;
9102;SDS011;4587;51.434;6.788;2023-04-15T10:13:55;4.50;;;4.10;;
9102;SDS011;4587;51.434;6.788;2023-04-15T10:16:22;4.33;;;3.93;;
9102;SDS011;4587;51.434;6.788;2023-04-15T10:18:53;3.77;;;3.47;;
9102;SDS011;4587;51.434;6.788;2023-04-15T10:21:20;4.40;;;4.00;;
9102;SDS011;4587;51.434;6.788;2023-04-15T10:23:47;6.30;;;3.77;;
9102;SDS011;4587;51.434;6.788;2023-04-15T10:26:14;4.47;;;3.90;;
9102;SDS011;4587;51.434;6.788;2023-04-15T10:28:41;5.30;;;3.90;;
9102;SDS011;4587;51.434;6.788;2023-04-15T10:31:13;4.27;;;3.87;;
9102;SDS011;4587;51.434;6.788;2023-04-15T10:33:39;4.57;;;4.17;;
9102;SDS011;4587;51.434;6.788;2023-04-15T10:36:07;4.90;;;4.17;;
9102;SDS011;4587;51.434;6.788;2023-04-15T10:46:42;5.13;;;4.63;;
9102;SDS011;4587;51.434;6.788;2023-04-15T10:49:10;5.07;;;4.60;;
9102;SDS011;4587;51.434;6.788;2023-04-15T10:51:44;5.40;;;4.90;;
9102;SDS011;4587;51.434;6.788;2023-04-15T11:02:37;4.10;;;3.70;;
9102;SDS011;4587;51.434;6.788;2023-04-15T11:05:11;4.03;;;3.70;;
9102;SDS011;4587;51.434;6.788;2023-04-15T11:12:41;5.53;;;3.97;;
9102;SDS011;4587;51.434;6.788;2023-04-15T11:18:07;4.73;;;4.27;;
9102;SDS011;4587;51.434;6.788;2023-04-15T11:20:38;5.03;;;3.50;;
9102;SDS011;4587;51.434;6.788;2023-04-15T11:23:05;3.20;;;2.90;;
9102;SDS011;4587;51.434;6.788;2023-04-15T11:25:31;3.57;;;3.27;;
9102;SDS011;4587;51.434;6.788;2023-04-15T11:27:59;3.70;;;3.40;;
9102;SDS011;4587;51.434;6.788;2023-04-15T11:30:26;3.73;;;3.43;;
9102;SDS011;4587;51.434;6.788;2023-04-15T11:32:59;3.83;;;3.40;;
9102;SDS011;4587;51.434;6.788;2023-04-15T11:35:26;4.60;;;4.20;;
9102;SDS011;4587;51.434;6.788;2023-04-15T11:37:52;4.30;;;3.90;;
9102;SDS011;4587;51.434;6.788;2023-04-15T11:40:25;6.57;;;3.60;;
9102;SDS011;4587;51.434;6.788;2023-04-15T11:43:06;4.07;;;3.67;;
9102;SDS011;4587;51.434;6.788;2023-04-15T11:45:35;3.50;;;3.20;;
9102;SDS011;4587;51.434;6.788;2023-04-15T11:48:06;3.50;;;3.20;;
9102;SDS011;4587;51.434;6.788;2023-04-15T11:50:36;3.63;;;3.33;;
9102;SDS011;4587;51.434;6.788;2023-04-15T11:53:05;5.10;;;3.67;;
9102;SDS011;4587;51.434;6.788;2023-04-15T11:55:42;3.80;;;3.40;;
9102;SDS011;4587;51.434;6.788;2023-04-15T12:00:55;3.90;;;3.23;;
9102;SDS011;4587;51.434;6.788;2023-04-15T12:11:34;3.20;;;2.90;;
9102;SDS011;4587;51.434;6.788;2023-04-15T12:19:26;4.43;;;3.30;;
9102;SDS011;4587;51.434;6.788;2023-04-15T12:21:59;6.27;;;3.47;;
9102;SDS011;4587;51.434;6.788;2023-04-15T12:24:28;3.63;;;3.27;;
9102;SDS011;4587;51.434;6.788;2023-04-15T12:26:56;3.40;;;3.10;;
9102;SDS011;4587;51.434;6.788;2023-04-15T12:29:27;3.20;;;3.00;;
9102;SDS011;4587;51.434;6.788;2023-04-15T12:34:30;5.37;;;2.97;;
9102;SDS011;4587;51.434;6.788;2023-04-15T12:36:59;2.90;;;2.70;;
9102;SDS011;4587;51.434;6.788;2023-04-15T12:39:30;2.77;;;2.57;;
9102;SDS011;4587;51.434;6.788;2023-04-15T12:42:05;4.50;;;3.27;;
9102;SDS011;4587;51.434;6.788;2023-04-15T12:44:32;4.73;;;3.20;;
9102;SDS011;4587;51.434;6.788;2023-04-15T12:46:58;3.03;;;2.80;;
9102;SDS011;4587;51.434;6.788;2023-04-15T12:49:24;2.93;;;2.70;;
9102;SDS011;4587;51.434;6.788;2023-04-15T12:51:51;2.90;;;2.70;;
9102;SDS011;4587;51.434;6.788;2023-04-15T12:54:18;2.90;;;2.50;;
9102;SDS011;4587;51.434;6.788;2023-04-15T12:56:45;2.43;;;2.23;;
9102;SDS011;4587;51.434;6.788;2023-04-15T12:59:12;2.80;;;2.33;;
9102;SDS011;4587;51.434;6.788;2023-04-15T13:01:39;3.20;;;2.47;;
9102;SDS011;4587;51.434;6.788;2023-04-15T13:04:05;2.50;;;2.27;;
9102;SDS011;4587;51.434;6.788;2023-04-15T13:06:31;3.93;;;2.80;;
9102;SDS011;4587;51.434;6.788;2023-04-15T13:09:00;4.97;;;3.00;;
9102;SDS011;4587;51.434;6.788;2023-04-15T13:11:27;4.10;;;3.30;;
9102;SDS011;4587;51.434;6.788;2023-04-15T13:13:58;5.47;;;3.30;;
9102;SDS011;4587;51.434;6.788;2023-04-15T13:16:28;4.43;;;2.90;;
9102;SDS011;4587;51.434;6.788;2023-04-15T13:18:54;5.53;;;4.03;;
9102;SDS011;4587;51.434;6.788;2023-04-15T13:21:20;4.67;;;2.90;;
9102;SDS011;4587;51.434;6.788;2023-04-15T13:23:47;3.17;;;2.87;;
9102;SDS011;4587;51.434;6.788;2023-04-15T13:26:13;3.80;;;2.77;;
9102;SDS011;4587;51.434;6.788;2023-04-15T13:28:39;3.33;;;3.03;;
9102;SDS011;4587;51.434;6.788;2023-04-15T13:31:05;3.87;;;2.87;;
9102;SDS011;4587;51.434;6.788;2023-04-15T13:33:30;3.70;;;3.10;;
9102;SDS011;4587;51.434;6.788;2023-04-15T13:35:56;3.00;;;2.57;;
9102;SDS011;4587;51.434;6.788;2023-04-15T13:38:23;3.13;;;2.50;;
9102;SDS011;4587;51.434;6.788;2023-04-15T13:40:49;3.23;;;2.40;;
9102;SDS011;4587;51.434;6.788;2023-04-15T13:43:15;2.37;;;2.17;;
9102;SDS011;4587;51.434;6.788;2023-04-15T13:45:41;4.10;;;2.53;;
9102;SDS011;4587;51.434;6.788;2023-04-15T13:48:07;4.57;;;2.50;;
9102;SDS011;4587;51.434;6.788;2023-04-15T13:50:33;3.07;;;2.50;;
9102;SDS011;4587;51.434;6.788;2023-04-15T13:52:59;3.13;;;2.70;;
9102;SDS011;4587;51.434;6.788;2023-04-15T13:55:25;3.00;;;2.50;;
9102;SDS011;4587;51.434;6.788;2023-04-15T13:57:50;3.33;;;2.53;;
9102;SDS011;4587;51.434;6.788;2023-04-15T14:00:16;3.87;;;2.40;;
9102;SDS011;4587;51.434;6.788;2023-04-15T14:02:42;4.70;;;2.90;;
9102;SDS011;4587;51.434;6.788;2023-04-15T14:05:08;4.00;;;2.73;;
9102;SDS011;4587;51.434;6.788;2023-04-15T14:07:34;3.47;;;2.57;;
9102;SDS011;4587;51.434;6.788;2023-04-15T14:10:00;4.80;;;3.10;;
9102;SDS011;4587;51.434;6.788;2023-04-15T14:12:26;3.63;;;2.60;;
9102;SDS011;4587;51.434;6.788;2023-04-15T14:14:51;3.63;;;2.90;;
9102;SDS011;4587;51.434;6.788;2023-04-15T14:17:17;3.57;;;2.43;;
9102;SDS011;4587;51.434;6.788;2023-04-15T14:19:43;3.77;;;2.80;;
9102;SDS011;4587;51.434;6.788;2023-04-15T14:22:09;4.37;;;2.60;;
9102;SDS011;4587;51.434;6.788;2023-04-15T14:24:35;3.33;;;2.50;;
9102;SDS011;4587;51.434;6.788;2023-04-15T14:27:00;5.40;;;2.40;;
9102;SDS011;4587;51.434;6.788;2023-04-15T14:29:27;2.33;;;2.13;;
9102;SDS011;4587;51.434;6.788;2023-04-15T14:31:52;2.70;;;2.20;;
9102;SDS011;4587;51.434;6.788;2023-04-15T14:34:19;2.27;;;2.07;;
9102;SDS011;4587;51.434;6.788;2023-04-15T14:36:49;3.60;;;2.23;;
9102;SDS011;4587;51.434;6.788;2023-04-15T14:39:15;2.10;;;1.93;;
9102;SDS011;4587;51.434;6.788;2023-04-15T14:41:40;3.80;;;2.13;;
9102;SDS011;4587;51.434;6.788;2023-04-15T14:44:06;3.60;;;2.30;;
9102;SDS011;4587;51.434;6.788;2023-04-15T14:46:33;3.03;;;2.37;;
9102;SDS011;4587;51.434;6.788;2023-04-15T14:48:59;3.00;;;2.17;;
9102;SDS011;4587;51.434;6.788;2023-04-15T14:51:25;4.23;;;2.20;;
9102;SDS011;4587;51.434;6.788;2023-04-15T14:53:50;3.50;;;2.43;;
9102;SDS011;4587;51.434;6.788;2023-04-15T14:56:16;6.50;;;2.23;;
9102;SDS011;4587;51.434;6.788;2023-04-15T14:58:42;6.27;;;2.50;;
9102;SDS011;4587;51.434;6.788;2023-04-15T15:01:08;4.37;;;2.47;;
9102;SDS011;4587;51.434;6.788;2023-04-15T15:03:37;3.67;;;2.00;;
9102;SDS011;4587;51.434;6.788;2023-04-15T15:06:03;3.13;;;2.17;;
9102;SDS011;4587;51.434;6.788;2023-04-15T15:08:29;2.83;;;2.07;;
9102;SDS011;4587;51.434;6.788;2023-04-15T15:10:55;3.27;;;2.07;;
9102;SDS011;4587;51.434;6.788;2023-04-15T15:13:20;5.10;;;2.40;;
9102;SDS011;4587;51.434;6.788;2023-04-15T15:15:46;2.10;;;1.90;;
9102;SDS011;4587;51.434;6.788;2023-04-15T15:18:13;2.73;;;2.00;;
9102;SDS011;4587;51.434;6.788;2023-04-15T15:20:40;5.83;;;2.43;;
9102;SDS011;4587;51.434;6.788;2023-04-15T15:23:06;2.47;;;2.27;;
9102;SDS011;4587;51.434;6.788;2023-04-15T15:25:32;3.20;;;2.37;;
9102;SDS011;4587;51.434;6.788;2023-04-15T15:27:58;3.00;;;2.17;;
9102;SDS011;4587;51.434;6.788;2023-04-15T15:30:23;3.53;;;2.50;;
9102;SDS011;4587;51.434;6.788;2023-04-15T15:32:49;4.43;;;3.17;;
9102;SDS011;4587;51.434;6.788;2023-04-15T15:35:15;2.90;;;2.30;;
9102;SDS011;4587;51.434;6.788;2023-04-15T15:37:41;3.13;;;2.40;;
9102;SDS011;4587;51.434;6.788;2023-04-15T15:40:07;2.63;;;2.03;;
9102;SDS011;4587;51.434;6.788;2023-04-15T15:42:33;4.03;;;2.77;;
9102;SDS011;4587;51.434;6.788;2023-04-15T15:44:59;5.97;;;2.70;;